createdAt,value
2022-09-24T00:00:17.918Z,8.03
2022-09-24T00:01:18.587Z,7.82
2022-09-24T00:02:15.338Z,7.81
2022-09-24T00:03:12.368Z,7.81
2022-09-24T00:04:12.540Z,7.67
2022-09-24T00:06:24.404Z,7.33
2022-09-24T00:07:21.191Z,7.59
2022-09-24T00:08:20.100Z,7.60
2022-09-24T00:09:21.932Z,7.99
2022-09-24T00:10:18.825Z,8.16
2022-09-24T00:11:18.036Z,7.86
2022-09-24T00:12:14.771Z,7.68
2022-09-24T00:13:14.975Z,7.76
2022-09-24T00:14:12.375Z,7.64
2022-09-24T00:15:09.444Z,7.62
2022-09-24T00:16:11.139Z,7.71
2022-09-24T00:17:07.859Z,7.91
2022-09-24T00:18:06.113Z,7.76
2022-09-24T00:19:05.308Z,7.92
2022-09-24T00:20:02.270Z,6.21
2022-09-24T00:20:59.040Z,7.54
2022-09-24T00:21:55.827Z,8.04
2022-09-24T00:22:52.539Z,8.29
2022-09-24T00:23:51.763Z,8.18
2022-09-24T00:25:07.306Z,8.32
2022-09-24T00:26:22.708Z,8.27
2022-09-24T00:27:19.412Z,7.82
2022-09-24T00:28:16.513Z,7.67
2022-09-24T00:29:16.595Z,6.00
2022-09-24T00:30:13.390Z,8.01
2022-09-24T00:31:10.187Z,8.05
2022-09-24T00:32:06.997Z,8.11
2022-09-24T00:33:03.700Z,7.07
2022-09-24T00:34:01.001Z,7.56
2022-09-24T00:34:57.795Z,7.73
2022-09-24T00:36:04.320Z,8.47
2022-09-24T00:37:01.279Z,8.49
2022-09-24T00:37:58.329Z,8.46
2022-09-24T00:38:59.060Z,8.11
2022-09-24T00:39:55.755Z,7.79
2022-09-24T00:40:52.542Z,7.54
2022-09-24T00:41:49.274Z,6.76
2022-09-24T00:42:45.959Z,7.24
2022-09-24T00:43:42.668Z,7.13
2022-09-24T00:44:45.416Z,7.31
2022-09-24T00:45:42.624Z,7.33
2022-09-24T00:46:43.753Z,7.55
2022-09-24T00:47:42.938Z,7.96
2022-09-24T00:48:41.287Z,7.51
2022-09-24T00:49:39.405Z,6.43
2022-09-24T00:50:36.389Z,7.36
2022-09-24T00:51:33.943Z,7.89
2022-09-24T00:52:31.084Z,7.99
2022-09-24T00:53:33.177Z,7.65
2022-09-24T00:54:29.936Z,7.47
2022-09-24T00:55:28.002Z,6.22
2022-09-24T00:56:25.727Z,6.85
2022-09-24T00:57:23.359Z,7.88
2022-09-24T00:58:23.119Z,7.51
2022-09-24T00:59:23.977Z,8.05
2022-09-24T01:00:21.969Z,7.15
2022-09-24T01:01:22.682Z,7.26
2022-09-24T01:02:19.592Z,7.64
2022-09-24T01:03:23.565Z,7.54
2022-09-24T01:04:21.519Z,6.70
2022-09-24T01:05:18.522Z,8.25
2022-09-24T01:06:15.480Z,8.22
2022-09-24T01:07:12.384Z,8.31
2022-09-24T01:08:17.865Z,7.54
2022-09-24T01:09:15.518Z,8.17
2022-09-24T01:10:12.333Z,8.45
2022-09-24T01:11:09.139Z,8.57
2022-09-24T01:12:26.239Z,7.48
2022-09-24T01:13:47.355Z,8.33
2022-09-24T01:14:44.043Z,8.22
2022-09-24T01:16:00.433Z,7.59
2022-09-24T01:17:14.836Z,7.59
2022-09-24T01:18:35.768Z,7.35
2022-09-24T01:19:58.606Z,7.75
2022-09-24T01:21:14.353Z,7.07
2022-09-24T01:22:42.083Z,7.58
2022-09-24T01:24:10.073Z,6.89
2022-09-24T01:25:24.722Z,7.15
2022-09-24T01:26:48.254Z,7.24
2022-09-24T01:28:26.277Z,7.15
2022-09-24T01:29:30.173Z,7.15
2022-09-24T01:30:32.302Z,6.73
2022-09-24T01:31:41.706Z,6.23
2022-09-24T01:32:54.128Z,6.94
2022-09-24T01:33:56.022Z,6.88
2022-09-24T01:35:02.194Z,6.10
2022-09-24T01:36:08.273Z,6.81
2022-09-24T01:37:05.214Z,6.89
2022-09-24T01:38:19.849Z,5.88
2022-09-24T01:39:20.243Z,7.47
2022-09-24T01:40:20.637Z,6.61
2022-09-24T01:41:19.979Z,6.87
2022-09-24T01:42:18.974Z,7.09
2022-09-24T01:43:20.538Z,6.53
2022-09-24T01:44:18.433Z,6.40
2022-09-24T01:45:17.524Z,7.43
2022-09-24T01:46:19.825Z,7.75
2022-09-24T01:47:23.443Z,7.47
2022-09-24T01:48:21.956Z,6.37
2022-09-24T01:49:18.721Z,7.50
2022-09-24T01:50:19.513Z,7.47
2022-09-24T01:51:26.879Z,7.87
2022-09-24T01:52:35.305Z,7.77
2022-09-24T01:53:46.349Z,7.88
2022-09-24T01:54:51.715Z,7.30
2022-09-24T01:55:57.280Z,7.44
2022-09-24T01:56:58.450Z,7.64
2022-09-24T01:58:21.970Z,7.07
2022-09-24T01:59:18.600Z,7.44
2022-09-24T02:00:20.189Z,7.18
2022-09-24T02:01:29.792Z,6.85
2022-09-24T02:02:54.556Z,6.80
2022-09-24T02:03:59.991Z,6.66
2022-09-24T02:05:02.153Z,6.48
2022-09-24T02:06:14.051Z,6.35
2022-09-24T02:07:22.071Z,5.28
2022-09-24T02:08:22.864Z,6.41
2022-09-24T02:09:40.086Z,6.35
2022-09-24T02:10:55.591Z,6.42
2022-09-24T02:11:56.452Z,3.16
2022-09-24T02:13:02.122Z,6.12
2022-09-24T02:14:14.829Z,6.04
2022-09-24T02:15:17.519Z,6.26
2022-09-24T02:16:20.854Z,5.91
2022-09-24T02:17:18.374Z,6.28
2022-09-24T02:18:19.744Z,6.76
2022-09-24T02:19:23.167Z,6.59
2022-09-24T02:20:23.611Z,5.90
2022-09-24T02:21:24.284Z,6.49
2022-09-24T02:22:21.774Z,6.50
2022-09-24T02:23:20.655Z,6.71
2022-09-24T02:24:30.465Z,6.79
2022-09-24T02:25:34.866Z,7.31
2022-09-24T02:26:31.739Z,6.27
2022-09-24T02:27:28.896Z,7.36
2022-09-24T02:28:26.995Z,6.55
2022-09-24T02:29:23.718Z,6.80
2022-09-24T02:30:20.735Z,6.81
2022-09-24T02:31:27.321Z,6.40
2022-09-24T02:32:32.046Z,6.54
2022-09-24T02:33:52.392Z,6.30
2022-09-24T02:34:55.929Z,7.66
2022-09-24T02:35:53.386Z,7.28
2022-09-24T02:37:05.373Z,5.99
2022-09-24T02:38:06.305Z,6.88
2022-09-24T02:39:04.210Z,7.02
2022-09-24T02:40:01.190Z,7.55
2022-09-24T02:40:58.368Z,7.39
2022-09-24T02:41:55.938Z,6.86
2022-09-24T02:42:52.643Z,6.42
2022-09-24T02:43:49.990Z,6.71
2022-09-24T02:44:47.554Z,6.39
2022-09-24T02:45:44.278Z,6.51
2022-09-24T02:46:41.736Z,6.84
2022-09-24T02:47:38.994Z,7.18
2022-09-24T02:48:38.892Z,6.89
2022-09-24T02:49:36.087Z,6.73
2022-09-24T02:50:32.797Z,6.56
2022-09-24T02:51:30.166Z,6.83
2022-09-24T02:52:28.043Z,6.78
2022-09-24T02:53:24.733Z,6.63
2022-09-24T02:54:22.208Z,5.69
2022-09-24T02:55:18.889Z,6.53
2022-09-24T02:56:15.590Z,6.31
2022-09-24T02:57:12.277Z,6.46
2022-09-24T02:58:08.986Z,6.76
2022-09-24T02:59:06.740Z,6.92
2022-09-24T03:00:04.142Z,6.84
2022-09-24T03:01:00.877Z,7.04
2022-09-24T03:01:57.692Z,6.87
2022-09-24T03:02:54.626Z,7.40
2022-09-24T03:03:51.582Z,7.27
2022-09-24T03:04:48.279Z,7.05
2022-09-24T03:05:45.945Z,7.35
2022-09-24T03:06:43.470Z,6.90
2022-09-24T03:07:40.174Z,6.45
2022-09-24T03:08:36.880Z,6.28
2022-09-24T03:09:33.600Z,6.36
2022-09-24T03:10:31.310Z,6.26
2022-09-24T03:11:29.210Z,6.23
2022-09-24T03:12:25.939Z,5.56
2022-09-24T03:13:22.888Z,6.10
2022-09-24T03:14:19.659Z,6.85
2022-09-24T03:15:16.406Z,6.60
2022-09-24T03:16:13.172Z,6.51
2022-09-24T03:17:09.929Z,7.06
2022-09-24T03:18:06.659Z,7.23
2022-09-24T03:19:03.388Z,6.24
2022-09-24T03:20:00.068Z,7.31
2022-09-24T03:20:58.950Z,6.90
2022-09-24T03:21:55.673Z,6.21
2022-09-24T03:22:52.841Z,5.60
2022-09-24T03:23:49.957Z,6.22
2022-09-24T03:24:46.776Z,6.22
2022-09-24T03:25:43.476Z,6.57
2022-09-24T03:26:40.290Z,6.53
2022-09-24T03:27:36.981Z,6.91
2022-09-24T03:28:33.666Z,6.80
2022-09-24T03:29:48.959Z,7.39
2022-09-24T03:31:01.374Z,7.12
2022-09-24T03:31:58.200Z,6.40
2022-09-24T03:32:55.011Z,5.49
2022-09-24T03:33:51.896Z,6.24
2022-09-24T03:34:48.597Z,6.17
2022-09-24T03:35:45.348Z,6.12
2022-09-24T03:36:42.040Z,5.05
2022-09-24T03:37:38.740Z,4.98
2022-09-24T03:38:37.100Z,6.02
2022-09-24T03:39:33.815Z,6.24
2022-09-24T03:40:30.603Z,6.19
2022-09-24T03:41:27.859Z,6.12
2022-09-24T03:42:24.592Z,6.12
2022-09-24T03:43:21.359Z,6.61
2022-09-24T03:44:18.035Z,6.95
2022-09-24T03:45:14.867Z,6.63
2022-09-24T03:46:13.058Z,6.06
2022-09-24T03:47:10.127Z,5.97
2022-09-24T03:48:06.935Z,5.10
2022-09-24T03:49:03.658Z,6.20
2022-09-24T03:50:00.330Z,5.81
2022-09-24T03:50:57.868Z,5.87
2022-09-24T03:51:54.625Z,5.37
2022-09-24T03:52:51.397Z,5.67
2022-09-24T03:53:48.669Z,5.89
2022-09-24T03:54:45.390Z,6.24
2022-09-24T03:55:53.789Z,6.26
2022-09-24T03:56:50.481Z,5.70
2022-09-24T03:57:47.142Z,6.12
2022-09-24T03:58:48.118Z,5.31
2022-09-24T03:59:45.392Z,6.55
2022-09-24T04:00:42.790Z,6.50
2022-09-24T04:01:39.549Z,6.26
2022-09-24T04:02:36.357Z,6.28
2022-09-24T04:03:33.482Z,5.56
2022-09-24T04:04:30.153Z,5.85
2022-09-24T04:05:26.908Z,5.67
2022-09-24T04:06:26.236Z,6.11
2022-09-24T04:07:22.957Z,5.83
2022-09-24T04:08:21.244Z,5.71
2022-09-24T04:09:18.080Z,5.72
2022-09-24T04:10:14.922Z,4.55
2022-09-24T04:11:11.639Z,5.67
2022-09-24T04:12:08.347Z,5.90
2022-09-24T04:13:05.408Z,6.51
2022-09-24T04:14:02.324Z,6.44
2022-09-24T04:14:59.136Z,6.63
2022-09-24T04:15:56.135Z,6.77
2022-09-24T04:16:53.608Z,6.84
2022-09-24T04:17:55.922Z,7.01
2022-09-24T04:18:54.026Z,6.51
2022-09-24T04:19:51.628Z,6.40
2022-09-24T04:20:48.754Z,6.16
2022-09-24T04:21:46.039Z,5.78
2022-09-24T04:22:42.827Z,6.11
2022-09-24T04:23:39.584Z,5.50
2022-09-24T04:24:37.064Z,5.93
2022-09-24T04:25:34.319Z,5.78
2022-09-24T04:26:31.232Z,5.81
2022-09-24T04:27:28.083Z,5.70
2022-09-24T04:28:25.295Z,5.87
2022-09-24T04:29:22.071Z,5.35
2022-09-24T04:30:18.820Z,5.74
2022-09-24T04:31:15.607Z,5.29
2022-09-24T04:32:12.350Z,5.59
2022-09-24T04:33:09.125Z,5.37
2022-09-24T04:34:06.160Z,5.21
2022-09-24T04:35:07.376Z,4.50
2022-09-24T04:36:04.368Z,5.56
2022-09-24T04:37:01.095Z,4.99
2022-09-24T04:37:59.455Z,5.49
2022-09-24T04:38:57.015Z,5.96
2022-09-24T04:39:53.717Z,5.51
2022-09-24T04:40:50.513Z,6.12
2022-09-24T04:41:47.942Z,6.59
2022-09-24T04:42:46.376Z,6.78
2022-09-24T04:43:46.815Z,6.94
2022-09-24T04:44:47.265Z,6.96
2022-09-24T04:45:45.237Z,5.56
2022-09-24T04:46:42.876Z,6.40
2022-09-24T04:47:42.790Z,5.76
2022-09-24T04:48:40.210Z,6.75
2022-09-24T04:49:36.897Z,6.80
2022-09-24T04:50:33.747Z,7.10
2022-09-24T04:51:35.561Z,7.15
2022-09-24T04:52:33.310Z,7.03
2022-09-24T04:53:30.088Z,7.24
2022-09-24T04:54:29.683Z,7.32
2022-09-24T04:55:27.777Z,7.25
2022-09-24T04:56:24.505Z,7.19
2022-09-24T04:57:22.042Z,6.72
2022-09-24T04:58:18.993Z,6.88
2022-09-24T04:59:15.745Z,6.17
2022-09-24T05:00:15.525Z,6.27
2022-09-24T05:01:13.474Z,6.70
2022-09-24T05:02:10.765Z,7.34
2022-09-24T05:03:07.679Z,7.15
2022-09-24T05:04:04.416Z,7.41
2022-09-24T05:05:01.195Z,7.15
2022-09-24T05:05:57.939Z,6.93
2022-09-24T05:06:54.639Z,6.76
2022-09-24T05:07:52.738Z,6.90
2022-09-24T05:08:49.452Z,7.18
2022-09-24T05:09:46.161Z,7.31
2022-09-24T05:10:43.402Z,6.46
2022-09-24T05:11:40.122Z,6.96
2022-09-24T05:12:36.857Z,6.77
2022-09-24T05:13:34.436Z,6.91
2022-09-24T05:14:31.452Z,6.90
2022-09-24T05:15:28.260Z,6.81
2022-09-24T05:16:25.307Z,6.51
2022-09-24T05:17:22.130Z,6.92
2022-09-24T05:18:18.837Z,6.76
2022-09-24T05:19:15.556Z,6.81
2022-09-24T05:20:12.675Z,7.30
2022-09-24T05:21:09.410Z,6.92
2022-09-24T05:22:06.626Z,7.11
2022-09-24T05:23:03.346Z,6.95
2022-09-24T05:24:00.091Z,7.31
2022-09-24T05:24:56.888Z,7.14
2022-09-24T05:26:12.497Z,7.74
2022-09-24T05:27:10.262Z,7.99
2022-09-24T05:28:07.007Z,7.55
2022-09-24T05:29:03.845Z,7.91
2022-09-24T05:30:01.155Z,7.56
2022-09-24T05:30:58.419Z,7.67
2022-09-24T05:31:55.286Z,7.85
2022-09-24T05:32:52.929Z,8.30
2022-09-24T05:33:49.932Z,8.09
2022-09-24T05:34:47.590Z,7.18
2022-09-24T05:35:44.306Z,7.29
2022-09-24T05:36:43.093Z,6.78
2022-09-24T05:37:40.555Z,7.45
2022-09-24T05:38:41.486Z,7.35
2022-09-24T05:39:38.683Z,8.08
2022-09-24T05:40:50.464Z,7.92
2022-09-24T05:41:47.727Z,7.94
2022-09-24T05:42:44.437Z,7.86
2022-09-24T05:43:41.219Z,7.83
2022-09-24T05:44:38.146Z,8.12
2022-09-24T05:45:34.967Z,8.23
2022-09-24T05:46:33.047Z,8.25
2022-09-24T05:47:29.885Z,7.71
2022-09-24T05:48:26.616Z,7.60
2022-09-24T05:49:23.755Z,7.92
2022-09-24T05:50:21.443Z,7.43
2022-09-24T05:51:18.827Z,8.19
2022-09-24T05:52:15.543Z,8.60
2022-09-24T05:53:12.934Z,8.41
2022-09-24T05:54:11.491Z,8.28
2022-09-24T05:55:10.329Z,8.81
2022-09-24T05:56:07.368Z,8.57
2022-09-24T05:57:04.082Z,8.58
2022-09-24T05:58:10.859Z,8.89
2022-09-24T05:59:07.823Z,9.03
2022-09-24T06:00:06.868Z,8.33
2022-09-24T06:01:03.908Z,8.64
2022-09-24T06:02:00.752Z,8.92
2022-09-24T06:03:02.888Z,9.00
2022-09-24T06:04:01.659Z,9.04
2022-09-24T06:05:01.479Z,9.43
2022-09-24T06:06:02.258Z,9.22
2022-09-24T06:06:59.141Z,8.54
2022-09-24T06:07:56.207Z,9.15
2022-09-24T06:08:53.747Z,9.44
2022-09-24T06:09:50.770Z,9.59
2022-09-24T06:10:48.662Z,9.66
2022-09-24T06:11:45.873Z,8.99
2022-09-24T06:12:42.647Z,8.69
2022-09-24T06:13:39.494Z,9.25
2022-09-24T06:14:37.080Z,9.22
2022-09-24T06:15:36.164Z,9.28
2022-09-24T06:16:34.261Z,9.71
2022-09-24T06:17:31.924Z,9.79
2022-09-24T06:18:28.806Z,9.78
2022-09-24T06:19:25.515Z,9.73
2022-09-24T06:20:23.440Z,9.44
2022-09-24T06:21:20.290Z,9.47
2022-09-24T06:22:16.945Z,9.39
2022-09-24T06:23:14.231Z,9.70
2022-09-24T06:24:11.353Z,10.00
2022-09-24T06:25:08.766Z,9.96
2022-09-24T06:26:07.985Z,9.68
2022-09-24T06:27:04.831Z,10.43
2022-09-24T06:28:03.925Z,10.37
2022-09-24T06:29:04.598Z,10.10
2022-09-24T06:30:02.000Z,10.00
2022-09-24T06:31:00.980Z,9.92
2022-09-24T06:31:57.694Z,9.94
2022-09-24T06:32:55.171Z,9.79
2022-09-24T06:33:52.054Z,9.57
2022-09-24T06:34:49.042Z,9.62
2022-09-24T06:35:46.761Z,10.02
2022-09-24T06:36:43.480Z,9.87
2022-09-24T06:37:40.160Z,9.96
2022-09-24T06:38:39.329Z,9.59
2022-09-24T06:39:36.195Z,10.29
2022-09-24T06:40:36.972Z,10.27
2022-09-24T06:41:34.298Z,9.90
2022-09-24T06:42:31.037Z,10.26
2022-09-24T06:43:28.068Z,9.94
2022-09-24T06:44:24.824Z,9.25
2022-09-24T06:45:22.559Z,10.38
2022-09-24T06:46:19.315Z,10.36
2022-09-24T06:47:16.103Z,10.68
2022-09-24T06:48:14.517Z,10.28
2022-09-24T06:49:12.408Z,9.72
2022-09-24T06:50:09.485Z,9.81
2022-09-24T06:51:06.514Z,9.22
2022-09-24T06:52:03.226Z,9.79
2022-09-24T06:53:01.049Z,9.40
2022-09-24T06:53:57.830Z,9.63
2022-09-24T06:54:55.975Z,9.32
2022-09-24T06:55:55.851Z,10.58
2022-09-24T06:56:52.732Z,10.79
2022-09-24T06:57:49.557Z,10.89
2022-09-24T06:58:46.607Z,10.94
2022-09-24T06:59:43.315Z,11.11
2022-09-24T07:00:41.201Z,11.03
2022-09-24T07:01:38.050Z,11.01
2022-09-24T07:02:34.914Z,10.93
2022-09-24T07:03:34.278Z,11.07
2022-09-24T07:04:31.016Z,11.09
2022-09-24T07:05:27.763Z,11.23
2022-09-24T07:06:24.466Z,10.24
2022-09-24T07:07:30.372Z,11.21
2022-09-24T07:08:27.747Z,11.28
2022-09-24T07:09:24.987Z,11.08
2022-09-24T07:10:23.459Z,11.02
2022-09-24T07:11:20.251Z,11.48
2022-09-24T07:12:16.938Z,11.71
2022-09-24T07:13:14.302Z,11.65
2022-09-24T07:14:11.005Z,11.67
2022-09-24T07:15:09.105Z,11.61
2022-09-24T07:16:06.075Z,11.67
2022-09-24T07:17:02.857Z,11.53
2022-09-24T07:17:59.631Z,11.83
2022-09-24T07:18:56.371Z,11.34
2022-09-24T07:19:54.276Z,12.02
2022-09-24T07:20:55.958Z,11.98
2022-09-24T07:21:52.683Z,11.26
2022-09-24T07:22:49.363Z,11.05
2022-09-24T07:23:46.854Z,10.09
2022-09-24T07:24:43.602Z,11.05
2022-09-24T07:25:40.328Z,10.79
2022-09-24T07:26:37.080Z,10.09
2022-09-24T07:27:33.931Z,11.11
2022-09-24T07:28:30.595Z,11.42
2022-09-24T07:29:27.326Z,11.15
2022-09-24T07:30:24.095Z,11.31
2022-09-24T07:31:20.954Z,11.23
2022-09-24T07:32:17.695Z,10.31
2022-09-24T07:33:14.430Z,10.92
2022-09-24T07:34:11.212Z,11.31
2022-09-24T07:35:08.094Z,10.84
2022-09-24T07:36:09.588Z,10.62
2022-09-24T07:37:06.264Z,11.26
2022-09-24T07:38:06.296Z,11.48
2022-09-24T07:39:03.247Z,11.10
2022-09-24T07:40:00.335Z,11.42
2022-09-24T07:40:58.986Z,11.73
2022-09-24T07:41:56.105Z,11.84
2022-09-24T07:42:54.437Z,11.61
2022-09-24T07:43:51.216Z,11.51
2022-09-24T07:44:48.676Z,11.76
2022-09-24T07:45:46.420Z,11.79
2022-09-24T07:46:43.085Z,11.86
2022-09-24T07:47:39.897Z,10.91
2022-09-24T07:48:36.729Z,11.24
2022-09-24T07:49:33.524Z,11.16
2022-09-24T07:50:33.111Z,11.54
2022-09-24T07:51:30.983Z,11.69
2022-09-24T07:52:27.673Z,11.75
2022-09-24T07:53:24.453Z,11.55
2022-09-24T07:54:21.159Z,11.79
2022-09-24T07:55:18.889Z,11.85
2022-09-24T07:56:15.581Z,12.16
2022-09-24T07:57:15.301Z,11.18
2022-09-24T07:58:14.113Z,12.31
2022-09-24T07:59:11.307Z,12.07
2022-09-24T08:00:09.071Z,11.08
2022-09-24T08:01:05.889Z,11.74
2022-09-24T08:02:02.644Z,12.13
2022-09-24T08:02:59.475Z,12.16
2022-09-24T08:03:56.285Z,12.30
2022-09-24T08:04:53.066Z,12.40
2022-09-24T08:05:49.998Z,12.03
2022-09-24T08:06:47.639Z,11.72
2022-09-24T08:07:55.495Z,12.53
2022-09-24T08:08:53.128Z,12.56
2022-09-24T08:09:49.894Z,12.55
2022-09-24T08:10:46.771Z,12.52
2022-09-24T08:11:44.088Z,12.73
2022-09-24T08:12:40.825Z,12.18
2022-09-24T08:13:38.270Z,12.55
2022-09-24T08:14:35.206Z,12.66
2022-09-24T08:15:31.863Z,12.94
2022-09-24T08:16:29.128Z,11.84
2022-09-24T08:17:26.748Z,13.03
2022-09-24T08:18:24.389Z,12.98
2022-09-24T08:19:21.135Z,12.97
2022-09-24T08:20:18.279Z,12.42
2022-09-24T08:21:15.475Z,12.30
2022-09-24T08:22:16.913Z,13.07
2022-09-24T08:23:13.698Z,12.78
2022-09-24T08:24:10.444Z,12.60
2022-09-24T08:25:07.840Z,12.94
2022-09-24T08:26:05.714Z,12.75
2022-09-24T08:27:02.386Z,12.05
2022-09-24T08:28:04.508Z,12.77
2022-09-24T08:29:01.227Z,12.67
2022-09-24T08:29:57.973Z,12.94
2022-09-24T08:31:01.255Z,12.56
2022-09-24T08:31:58.268Z,12.97
2022-09-24T08:32:55.024Z,12.90
2022-09-24T08:33:51.950Z,12.69
2022-09-24T08:34:48.646Z,13.15
2022-09-24T08:35:45.347Z,13.21
2022-09-24T08:36:43.116Z,13.06
2022-09-24T08:37:40.085Z,13.19
2022-09-24T08:38:36.810Z,12.54
2022-09-24T08:39:34.002Z,13.48
2022-09-24T08:40:38.982Z,13.46
2022-09-24T08:42:00.910Z,13.37
2022-09-24T08:43:07.850Z,13.61
2022-09-24T08:44:10.865Z,13.80
2022-09-24T08:45:29.862Z,12.89
2022-09-24T08:46:57.705Z,13.57
2022-09-24T08:48:02.332Z,13.33
2022-09-24T08:49:01.697Z,13.51
2022-09-24T08:50:11.170Z,13.46
2022-09-24T08:51:14.854Z,13.58
2022-09-24T08:52:45.579Z,13.84
2022-09-24T08:53:57.832Z,13.99
2022-09-24T08:55:02.312Z,13.60
2022-09-24T08:56:01.426Z,13.73
2022-09-24T08:57:02.985Z,14.29
2022-09-24T08:58:17.375Z,14.31
2022-09-24T08:59:32.901Z,14.40
2022-09-24T09:00:39.107Z,13.89
2022-09-24T09:01:54.647Z,14.59
2022-09-24T09:03:15.909Z,14.56
2022-09-24T09:04:38.597Z,14.46
2022-09-24T09:05:54.549Z,14.15
2022-09-24T09:06:57.283Z,14.63
2022-09-24T09:07:56.844Z,14.69
2022-09-24T09:09:09.611Z,14.59
2022-09-24T09:10:26.339Z,14.79
2022-09-24T09:11:30.583Z,14.43
2022-09-24T09:12:34.277Z,14.56
2022-09-24T09:13:46.413Z,14.85
2022-09-24T09:14:58.439Z,15.03
2022-09-24T09:16:26.522Z,15.00
2022-09-24T09:17:57.337Z,14.84
2022-09-24T09:19:04.529Z,15.13
2022-09-24T09:20:07.707Z,14.92
2022-09-24T09:21:12.823Z,14.99
2022-09-24T09:22:17.406Z,14.67
2022-09-24T09:23:21.547Z,15.11
2022-09-24T09:24:23.361Z,15.23
2022-09-24T09:25:28.347Z,14.89
2022-09-24T09:26:26.696Z,15.31
2022-09-24T09:27:23.459Z,15.12
2022-09-24T09:28:20.982Z,15.31
2022-09-24T09:29:17.774Z,15.43
2022-09-24T09:30:18.252Z,15.52
2022-09-24T09:31:28.296Z,15.51
2022-09-24T09:32:49.107Z,15.60
2022-09-24T09:34:07.666Z,15.70
2022-09-24T09:35:35.141Z,15.79
2022-09-24T09:36:40.878Z,15.73
2022-09-24T09:37:46.355Z,15.78
2022-09-24T09:39:18.484Z,16.03
2022-09-24T09:40:38.543Z,15.92
2022-09-24T09:41:48.408Z,16.01
2022-09-24T09:42:45.538Z,16.14
2022-09-24T09:43:42.307Z,15.98
2022-09-24T09:44:41.905Z,15.36
2022-09-24T09:46:04.697Z,16.26
2022-09-24T09:47:21.292Z,16.19
2022-09-24T09:48:24.297Z,16.29
2022-09-24T09:49:22.891Z,16.21
2022-09-24T09:50:28.703Z,16.32
2022-09-24T09:51:27.061Z,16.34
2022-09-24T09:52:29.405Z,16.37
2022-09-24T09:53:29.777Z,16.15
2022-09-24T09:54:37.405Z,15.65
2022-09-24T09:55:37.935Z,16.74
2022-09-24T09:56:44.501Z,16.39
2022-09-24T09:57:41.730Z,16.83
2022-09-24T09:58:47.192Z,16.93
2022-09-24T09:59:55.703Z,17.13
2022-09-24T10:01:02.736Z,17.12
2022-09-24T10:01:59.800Z,16.97
2022-09-24T10:02:56.915Z,17.03
2022-09-24T10:03:55.684Z,16.62
2022-09-24T10:04:56.065Z,16.32
2022-09-24T10:06:02.481Z,17.25
2022-09-24T10:07:17.327Z,17.08
2022-09-24T10:08:21.831Z,17.11
2022-09-24T10:09:19.947Z,17.00
2022-09-24T10:10:20.896Z,17.49
2022-09-24T10:11:18.997Z,16.93
2022-09-24T10:12:15.883Z,17.63
2022-09-24T10:13:13.312Z,17.60
2022-09-24T10:14:12.567Z,16.64
2022-09-24T10:15:27.171Z,17.38
2022-09-24T10:16:24.213Z,17.22
2022-09-24T10:17:31.299Z,16.97
2022-09-24T10:18:34.655Z,17.30
2022-09-24T10:19:36.604Z,16.73
2022-09-24T10:20:34.606Z,17.30
2022-09-24T10:21:35.576Z,17.57
2022-09-24T10:22:32.531Z,17.71
2022-09-24T10:23:42.438Z,17.70
2022-09-24T10:24:43.833Z,17.68
2022-09-24T10:25:40.873Z,17.73
2022-09-24T10:26:45.501Z,17.83
2022-09-24T10:27:42.543Z,17.54
2022-09-24T10:29:07.754Z,17.86
2022-09-24T10:30:35.572Z,17.58
2022-09-24T10:31:39.062Z,17.10
2022-09-24T10:32:36.729Z,17.85
2022-09-24T10:33:42.834Z,17.95
2022-09-24T10:34:39.574Z,17.98
2022-09-24T10:35:38.738Z,17.96
2022-09-24T10:36:35.509Z,17.82
2022-09-24T10:37:32.493Z,17.86
2022-09-24T10:38:29.517Z,17.66
2022-09-24T10:39:26.425Z,18.14
2022-09-24T10:40:28.524Z,18.05
2022-09-24T10:41:28.339Z,17.41
2022-09-24T10:42:28.885Z,17.63
2022-09-24T10:43:25.799Z,18.28
2022-09-24T10:44:26.465Z,17.89
2022-09-24T10:45:38.266Z,18.24
2022-09-24T10:46:53.097Z,18.09
2022-09-24T10:48:01.631Z,18.16
2022-09-24T10:49:13.111Z,17.42
2022-09-24T10:50:46.362Z,17.90
2022-09-24T10:52:00.861Z,18.24
2022-09-24T10:53:15.915Z,18.24
2022-09-24T10:54:21.500Z,18.27
2022-09-24T10:55:33.284Z,18.33
2022-09-24T10:56:43.643Z,18.37
2022-09-24T10:57:54.276Z,18.13
2022-09-24T10:59:28.157Z,18.44
2022-09-24T11:00:34.646Z,18.36
2022-09-24T11:01:58.088Z,18.28
2022-09-24T11:03:09.757Z,18.31
2022-09-24T11:04:51.432Z,18.42
2022-09-24T11:06:02.541Z,18.23
2022-09-24T11:07:31.870Z,18.49
2022-09-24T11:08:37.536Z,18.49
2022-09-24T11:09:42.207Z,18.36
2022-09-24T11:10:54.051Z,18.34
2022-09-24T11:12:15.572Z,18.38
2022-09-24T11:13:23.859Z,18.14
2022-09-24T11:14:46.636Z,18.61
2022-09-24T11:16:12.365Z,18.55
2022-09-24T11:17:37.023Z,18.49
2022-09-24T11:18:54.106Z,18.32
2022-09-24T11:20:06.619Z,18.16
2022-09-24T11:21:15.269Z,17.17
2022-09-24T11:22:16.730Z,18.47
2022-09-24T11:23:38.766Z,18.46
2022-09-24T11:24:53.607Z,18.56
2022-09-24T11:26:24.747Z,18.41
2022-09-24T11:28:12.430Z,18.60
2022-09-24T11:29:14.709Z,18.77
2022-09-24T11:30:25.630Z,18.70
2022-09-24T11:31:36.428Z,18.78
2022-09-24T11:33:10.705Z,18.77
2022-09-24T11:34:27.405Z,18.67
2022-09-24T11:35:38.551Z,18.34
2022-09-24T11:36:41.216Z,18.67
2022-09-24T11:37:59.844Z,18.73
2022-09-24T11:39:11.488Z,18.67
2022-09-24T11:40:18.063Z,18.69
2022-09-24T11:41:35.207Z,18.09
2022-09-24T11:42:47.345Z,17.88
2022-09-24T11:44:13.636Z,17.84
2022-09-24T11:45:22.979Z,18.93
2022-09-24T11:46:19.686Z,19.00
2022-09-24T11:47:34.581Z,18.99
2022-09-24T11:48:44.964Z,18.99
2022-09-24T11:49:47.935Z,18.94
2022-09-24T11:51:10.925Z,19.02
2022-09-24T11:52:24.050Z,19.08
2022-09-24T11:53:38.892Z,19.06
2022-09-24T11:55:02.390Z,19.05
2022-09-24T11:56:15.336Z,18.13
2022-09-24T11:57:25.157Z,18.75
2022-09-24T11:58:40.756Z,19.05
2022-09-24T12:00:07.287Z,18.07
2022-09-24T12:01:16.439Z,19.07
2022-09-24T12:02:28.616Z,19.12
2022-09-24T12:03:42.621Z,19.27
2022-09-24T12:04:51.089Z,19.43
2022-09-24T12:06:21.897Z,19.03
2022-09-24T12:07:33.828Z,18.97
2022-09-24T12:08:41.793Z,19.31
2022-09-24T12:10:07.136Z,19.39
2022-09-24T12:11:16.211Z,19.52
2022-09-24T12:12:29.441Z,19.31
2022-09-24T12:13:36.473Z,19.10
2022-09-24T12:14:42.071Z,19.37
2022-09-24T12:15:52.467Z,19.01
2022-09-24T12:16:57.662Z,19.32
2022-09-24T12:18:13.233Z,19.47
2022-09-24T12:19:22.050Z,18.99
2022-09-24T12:20:28.714Z,19.50
2022-09-24T12:21:34.071Z,19.72
2022-09-24T12:22:35.674Z,19.69
2022-09-24T12:23:44.884Z,18.96
2022-09-24T12:24:58.469Z,19.28
2022-09-24T12:25:59.162Z,19.55
2022-09-24T12:27:01.593Z,19.33
2022-09-24T12:28:00.884Z,19.25
2022-09-24T12:29:44.026Z,19.59
2022-09-24T12:31:12.073Z,19.39
2022-09-24T12:32:41.566Z,19.73
2022-09-24T12:33:48.982Z,19.58
2022-09-24T12:34:59.858Z,18.96
2022-09-24T12:35:59.111Z,19.77
2022-09-24T12:37:11.806Z,19.47
2022-09-24T12:38:20.149Z,19.87
2022-09-24T12:39:22.028Z,19.84
2022-09-24T12:40:51.404Z,19.67
2022-09-24T12:41:57.831Z,19.61
2022-09-24T12:42:59.128Z,19.72
2022-09-24T12:44:09.804Z,19.65
2022-09-24T12:45:15.936Z,19.63
2022-09-24T12:46:22.869Z,19.41
2022-09-24T12:47:29.983Z,19.66
2022-09-24T12:48:28.815Z,19.64
2022-09-24T12:49:25.501Z,19.61
2022-09-24T12:50:27.350Z,19.46
2022-09-24T12:51:33.928Z,19.41
2022-09-24T12:52:33.856Z,19.50
2022-09-24T12:53:37.330Z,19.49
2022-09-24T12:54:38.997Z,19.28
2022-09-24T12:55:36.029Z,19.21
2022-09-24T12:56:34.487Z,19.50
2022-09-24T12:57:58.230Z,19.57
2022-09-24T12:58:55.696Z,19.70
2022-09-24T13:00:03.981Z,19.77
2022-09-24T13:01:13.318Z,19.65
2022-09-24T13:02:21.196Z,19.85
2022-09-24T13:03:43.197Z,19.76
2022-09-24T13:04:49.742Z,19.66
2022-09-24T13:05:48.494Z,19.49
2022-09-24T13:06:48.343Z,19.58
2022-09-24T13:07:55.887Z,19.54
2022-09-24T13:08:52.711Z,19.53
2022-09-24T13:09:49.398Z,19.34
2022-09-24T13:11:00.565Z,19.76
2022-09-24T13:12:15.255Z,19.75
2022-09-24T13:13:27.669Z,19.65
2022-09-24T13:14:33.268Z,19.67
2022-09-24T13:15:35.007Z,19.78
2022-09-24T13:16:38.999Z,18.85
2022-09-24T13:17:38.636Z,19.59
2022-09-24T13:18:37.410Z,18.82
2022-09-24T13:19:44.505Z,19.34
2022-09-24T13:21:01.752Z,19.56
2022-09-24T13:22:00.996Z,19.56
2022-09-24T13:23:12.783Z,20.02
2022-09-24T13:24:12.808Z,19.80
2022-09-24T13:25:09.705Z,19.77
2022-09-24T13:26:12.933Z,19.64
2022-09-24T13:27:21.784Z,19.73
2022-09-24T13:28:38.277Z,20.10
2022-09-24T13:29:39.944Z,20.09
2022-09-24T13:30:41.678Z,20.23
2022-09-24T13:31:49.037Z,19.92
2022-09-24T13:33:26.133Z,20.14
2022-09-24T13:34:27.782Z,19.39
2022-09-24T13:35:30.322Z,20.08
2022-09-24T13:36:40.035Z,20.16
2022-09-24T13:37:53.699Z,19.62
2022-09-24T13:38:58.920Z,20.14